Terminal Aerodrome Forecast
Issued by NWS

Home | Current Version | Previous Version | Text Only | Print | Product List | Glossary On
Versions: 1 2 3 4 5 6 7 8 9 10 11 12 13 14 15 16 17 18 19 20 21 22 23 24 25 26 27 28 29 30 31 32 33 34 35 36 37 38 39 40 41 42 43 44 45 46
000
FTUS45 KTWC 191700
TAFOLS
TAF
KOLS 191729Z 1918/2018 22006KT P6SM VCSH SCT020 BKN070
      TEMPO 1919/1921 5SM SHRA BKN020
     FM192300 36007KT P6SM VCSH SCT035 BKN090
     FM200700 02003KT P6SM VCSH SCT020 BKN040=

USA.gov is the U.S. government's official web portal to all federal, state and local government web resources and services.